Ride Results

Warwick Ride (18-04-2010)
Ride distance: 80.0 km

Outcomes - Warwick Ride (18-04-2010)
Division No. of Entries Retired / DNE Completed Withdrawn Ineligible V/O Percentage Completed
HW 12 - 8 2 - 2 66.67%
MW 42 - 33 1 - 8 78.57%
LW 19 - 15 1 - 3 78.95%
JN 8 - 6 - - 2 75.00%
Totals 81 - 62 4 - 15 76.54%
Results - Warwick Ride (18-04-2010)
No. Rider Horse Place Time Leg Speeds Total
Km/Hr
H/R bpm
Heavyweight
81 Gavin Bartlett Cingala Royalle 1 5:53:00 12.2, 15.3 13.63 35, 47, 50 (Avg:48)
46 Ven Grasso Aloha Spartacus 2 (BC) 6:08:00 13.3, 12.8 13.08 38, 52, 55 (Avg:53)
75 Paul Lengronne Tierview Feather Danczer 3 6:30:00 12.6, 11.9 12.34 33, 46, 57 (Avg:51)
53 Selwyn Nix Dunbar Mahadik 4 6:58:00 12.4, 10.6 11.51 32, 39, 54 (Avg:46)
19 Gregg Fields Cameo Horizons 5 7:02:00 11.4, 11.3 11.40 40, 45, 40 (Avg:42)
28 Olaf Lochtenberg Matta Mia Akwaseh 5 7:02:00 11.4, 11.3 11.40 31, 44, 59 (Avg:51)
6 Keith Sullivan Luciana 7 7:52:00 11.5, 9.1 10.19 37, 47, 53 (Avg:50)
80 Alan Post Woodbourne Katmando 8 8:47:00 10.1, 8.2 9.13 30, 37, 49 (Avg:43)
12 Maurice Gray Gydanska Widthdrawn L2 0:00:00 - - 33, 40, 44 (Avg:42)
25 Peter Toft Banks Creek Te Lame L2 0:00:00 11.3, 11.4 - 35, 43, 52 (Avg:47)
73 Matthew Gadsby Shardell Gandalf Lame L1 0:00:00 9.8 - 39, 47 (Avg:47)
65 Peter McDonald Wollumbin Farah Widthdrawn L1 0:00:00 - - 32, 52 (Avg:52)
Middleweight
16 Simone Krahnen La-Battist Shadow Fax 1 (BC) 4:54:00 16.6, 16.0 16.37 35, 52, 47 (Avg:49)
1 Jeni Martin Mirrigen Houndini 2 5:03:00 17.7, 14.3 15.88 33, 44, 49 (Avg:46)
55 Sally Summers Harry Potter 3 5:54:00 12.8, 14.4 13.59 39, 43, 49 (Avg:46)
43 Gayle Holmes Captain's Creek Rupert 4 6:08:00 13.3, 12.8 13.08 39, 50, 56 (Avg:53)
74 Marion Lengronne Maximal Silver Amulet 5 6:30:00 10.9, 14.1 12.34 33, 47, 53 (Avg:50)
82 Caroline Fitzgerald Lanamere Femmara 6 6:32:00 13.1, 11.5 12.28 33, 44, 48 (Avg:46)
83 Corinne Rees Lanamere Nightmusic 6 6:32:00 13.1, 11.5 12.28 37, 44, 51 (Avg:47)
84 Carmel Trevorrow Lanamere Forte 6 6:32:00 11.2, 13.4 12.28 39, 43, 49 (Avg:46)
21 Jan Rohweder Charlie Chaplin 9 6:35:00 11.2, 13.3 12.18 36, 47, 44 (Avg:45)
27 Tanya Zanow Sarandeep 10 6:36:00 13.1, 11.3 12.15 32, 47, 45 (Avg:46)
32 Rachael Keys Elfar Viper Fire 11 6:43:00 12.8, 11.1 11.94 30, 40, 49 (Avg:44)
45 Billie Barron Shardell Sharana Golden 12 6:48:01 11.8, 11.7 11.79 40, 42, 54 (Avg:48)
63 Wendy Smith Midu Jacelle 13 6:58:00 11.6, 11.3 11.51 39, 43, 54 (Avg:48)
64 Carolyn Strahan Georgia 13 6:58:00 11.6, 11.3 11.51 39, 42, 47 (Avg:44)
54 Derryn Nix Rowallan Rufous 15 6:58:01 12.4, 10.6 11.51 41, 50, 55 (Avg:52)
23 Jenna Arnett Rupert te 16 7:02:00 11.3, 11.4 11.40 40, 43, 41 (Avg:42)
72 Ute Jordan Larabi Rummanni 17 7:10:00 12.2, 10.3 11.19 33, 42, 40 (Avg:41)
67 Ken Moir Eskdale Shakago Bae 17 7:10:00 12.2, 10.3 11.19 33, 43, 47 (Avg:45)
76 Gerard Bou Splendacrest Superb 19 7:26:00 11.3, 10.3 10.79 34, 44, 50 (Avg:47)
29 Rosemary Hull Corvette 20 7:28:00 10.4, 11.0 10.74 36, 43, 51 (Avg:47)
48 Wayne McKinnon Dunbar Shiloh 21 7:32:00 11.3, 10.0 10.65 34, 43, 39 (Avg:41)
60 Zeeman Visser Brookleigh Kayla 22 7:33:00 9.9, 11.3 10.62 36, 41, 46 (Avg:43)
2 Ray Vlad Mithras Darius 23 7:43:00 11.5, 9.4 10.39 36, 41, 51 (Avg:46)
4 Joy Craig Kynnum Park Winter Wind 24 7:50:00 11.2, 9.4 10.24 33, 41, 46 (Avg:43)
70 Kristy Brundell Bullarto Fiorelli 25 7:52:00 10.5, 9.8 10.19 38, 45, 50 (Avg:47)
7 Lorraine Ternouth Drumlin Mystic Moon 25 7:52:00 11.5, 9.1 10.19 30, 37, 41 (Avg:39)
41 Tammie Bell Moon 27 7:57:00 10.6, 9.6 10.09 32, 40, 49 (Avg:44)
30 Johann Willemse The Wrangler 28 8:03:00 9.8, 10.0 9.96 40, 51, 52 (Avg:51)
8 Jillian Crowley Lilla 29 8:05:00 11.5, 8.6 9.92 34, 51, 52 (Avg:51)
14 Ouida Ratapu Bashan Malachi 29 8:05:00 11.3, 8.8 9.92 32, 43, 39 (Avg:41)
36 Janet Anderson Manana Zandy 31 8:27:00 9.8, 9.1 9.49 40, 40, 47 (Avg:43)
24 Pierre DeWit Rendezous te 32 8:28:00 9.8, 9.1 9.47 50, 43, 48 (Avg:45)
79 Judith Burton Woodbourne Bikini 33 8:47:00 10.1, 8.2 9.13 32, 41, 47 (Avg:44)
66 Natashja Burton Mt Eerwah Silver Mariner Heart Rate L2 0:00:00 10.8, 9.6 - 30, 37, 72 (Avg:54)
3 David Cleland Lasca's Lyric Lame L2 0:00:00 11.2, 9.4 - 36, 50, 53 (Avg:51)
61 Alice Fennah Brookleigh Mozart Heart Rate L2 0:00:00 16.4, 16.2 - 49, 49, 65 (Avg:57)
31 Damien Keys Elfar Karnella Lame L2 0:00:00 12.8, 11.1 - 37, 48, 53 (Avg:50)
77 Tarnia Kittel Aloha Contiki Heart Rate L2 0:00:00 11.3, 8.9 - 38, 46, 64 (Avg:55)
37 Sue Rhodes Slipstream La Joconda Heart Rate L2 0:00:00 11.2, 9.6 - 38, 53, 75 (Avg:64)
10 Celeste Manwaring Babez Zeytun Ghibli Lame L1 0:00:00 9.0 - 51, 44 (Avg:44)
39 Bridget Nottle Byrnlea Park Sokol Heart Rate L1 0:00:00 11.1 - 37, 60 (Avg:60)
9 Lisa Sanchez Amberwood Nemesia Widthdrawn L1 0:00:00 - - 38, 43 (Avg:43)
Lightweight
47 Sayed mohammed Abbas Lenny 1 (BC) 5:59:00 13.6, 13.1 13.40 39, 47, 58 (Avg:52)
38 Angela Hawks Crystabarbara 2 6:48:00 11.8, 11.7 11.79 39, 44, 50 (Avg:47)
20 Karen Fields Duwurri Midnite Magic 3 7:02:00 11.4, 11.3 11.40 29, 42, 43 (Avg:42)
52 Jackie Parsons Dunwingeri Nova 4 7:03:00 13.1, 10.0 11.38 34, 42, 52 (Avg:47)
44 Lisa Burgess Cameo Stormboy 5 7:10:00 10.9, 11.4 11.19 33, 41, 45 (Avg:43)
51 Amanda Powell Alamo Minelli 6 7:25:00 11.3, 10.3 10.81 32, 44, 53 (Avg:48)
50 Brooke Warner Turingal Park Nikolayev 6 7:25:00 11.3, 10.3 10.81 35, 42, 50 (Avg:46)
78 Clare Fleming Naz-Ton Beau Brummel 8 7:26:00 11.3, 10.3 10.79 35, 40, 50 (Avg:45)
13 Susan Kelman Jayhal Moonlight 9 7:31:00 12.5, 9.2 10.67 37, 38, 48 (Avg:43)
59 Elise Gough Brookleigh Scarlett 10 7:33:00 9.9, 11.3 10.62 36, 40, 60 (Avg:50)
58 Emma Shone Brookleigh Excalibur 10 7:33:00 9.9, 11.3 10.62 35, 39, 46 (Avg:42)
42 Jocelyn Barnes Trinity 12 7:57:00 10.6, 9.6 10.09 34, 37, 46 (Avg:41)
71 Pip Lillyman Splendacrest Dryad 13 8:03:00 11.0, 9.1 9.96 35, 48, 60 (Avg:54)
62 Lesley Page Moondara Montage 14 8:04:00 9.8, 10.0 9.94 33, 47, 42 (Avg:44)
11 Diane Wilson Agecroft Fada 15 8:05:00 11.2, 8.9 9.92 46, 52, 53 (Avg:52)
17 Christine Christie Duke Heart Rate L2 0:00:00 12.6, 10.0 - 51, 50, 71 (Avg:60)
5 Margaret Harvey Banbra Tamara Lame L2 0:00:00 10.9, 13.3 - 34, 48, 49 (Avg:48)
49 Anette Renneflott Dunbar Lexus Heart Rate L2 0:00:00 11.2, 10.0 - 33, 41, 72 (Avg:56)
22 Christine Ablett Lindall Falen Widthdrawn L1 0:00:00 - - 36, 0 (Avg:0)
Junior
15 Colleen Krahnen Kalkadoon Viva 1 (BC) 4:54:00 16.6, 16.0 16.37 37, 43, 47 (Avg:45)
33 Dylan Keys Elfar Sword O'Fire 2 6:43:01 12.8, 11.1 11.94 32, 36, 42 (Avg:39)
35 Racheal Townsend Chingford Blaze Away 3 7:43:00 11.2, 9.6 10.39 31, 40, 54 (Avg:47)
56 Jenna Watts Matika 4 8:26:00 10.0, 9.0 9.51 48, 44, 59 (Avg:51)
57 Louise Watts Sandine Carlingford 4 8:26:00 10.0, 9.0 9.51 39, 37, 49 (Avg:43)
18 Hannah Houlden Kynnum Park Shahkira 6 8:26:02 10.0, 9.0 9.51 42, 42, 47 (Avg:44)
40 Jade Vergis Meltharina Maralyc Heart Rate L2 0:00:00 12.6, 11.9 - 37, 44, 73 (Avg:58)
69 Steph Tulk Sangam Fentastic Lame L1 0:00:00 10.8 - 38, 41 (Avg:41)